This is the latest recevied weather packets stored in our database for station/object K6FW. If no packets are shown the sender has not sent any weather packets the latest 10 day(s).
| Time | Temp. | Humidity | Pressure | Rain* | Wind** | Luminosity | Snow |
|---|---|---|---|---|---|---|---|
| 1777232757 | 18.89° C | 48% | 1013.6 hPa | 0 mm | - | 287 W/m² | - |
| 1777230062 | 16.67° C | 60% | 1014 hPa | 0 mm | - | 216 W/m² | - |
| 1777229158 | 16.67° C | 63% | 1014 hPa | 0 mm | - | 1071 W/m² | - |
| 1777226460 | 15.56° C | 66% | 1014.2 hPa | 0 mm | - | 338 W/m² | - |
| 1777222867 | 14.44° C | 71% | 1013.8 hPa | 0 mm | - | 346 W/m² | - |
| 1777221959 | 14.44° C | 73% | 1013.6 hPa | 0 mm | - | 206 W/m² | - |
| 1777215666 | 12.22° C | 89% | 1013.1 hPa | 0 mm | - | 148 W/m² | - |
| 1777208459 | 11.11° C | 92% | 1011.6 hPa | 0 mm | - | 0 W/m² | - |
| 1777204860 | 11.11° C | 92% | 1011.2 hPa | 0 mm | - | 0 W/m² | - |
| 1777197657 | 11.67° C | 91% | 1011.3 hPa | 0 mm | - | 0 W/m² | - |
| 1777196759 | 11.67° C | 90% | 1011.4 hPa | 0 mm | - | 0 W/m² | - |
| 1777190459 | 12.22° C | 89% | 1012 hPa | 0 mm | - | 0 W/m² | - |
| 1777185059 | 12.22° C | 89% | 1012.3 hPa | 0 mm | - | 0 W/m² | - |
| 1777180558 | 12.78° C | 88% | 1012.6 hPa | 1.52 mm | - | 0 W/m² | - |
| 1777178757 | 12.78° C | 86% | 1012.5 hPa | 1.78 mm | - | 0 W/m² | - |
| 1777172458 | 13.89° C | 74% | 1012.1 hPa | 0 mm | - | 0 W/m² | - |
| 1777171571 | 13.89° C | 75% | 1011.9 hPa | 0 mm | - | 0 W/m² | - |
| 1777164371 | 15° C | 68% | 1011.9 hPa | 0 mm | - | 72 W/m² | - |
| 1777159865 | 16.11° C | 65% | 1011.1 hPa | 0 mm | - | 139 W/m² | - |
| 1777158967 | 16.11° C | 65% | 1011.4 hPa | 0 mm | - | 176 W/m² | - |
| 1777157162 | 17.22° C | 64% | 1011.2 hPa | 0 mm | - | 294 W/m² | - |
| 1777154463 | 18.33° C | 60% | 1011 hPa | 0 mm | - | 313 W/m² | - |
| 1777150860 | 18.89° C | 59% | 1011.7 hPa | 0 mm | - | 508 W/m² | - |
| 1777146368 | 19.44° C | 59% | 1011.7 hPa | 0 mm | - | 388 W/m² | - |
| 1777145471 | 19.44° C | 58% | 1011.8 hPa | 0 mm | - | 404 W/m² | - |
* Rain latest hour (hover to see other rain measurements)
** Current wind speed in m/s (hover to see current wind gust speed)